createdAt,value
2022-08-26T00:00:55.669Z,0.00
2022-08-26T00:05:55.606Z,0.00
2022-08-26T00:10:55.547Z,0.00
2022-08-26T00:15:55.464Z,0.00
2022-08-26T00:20:55.416Z,0.00
2022-08-26T00:25:55.332Z,0.00
2022-08-26T00:30:55.285Z,0.00
2022-08-26T00:35:55.212Z,0.00
2022-08-26T00:40:55.152Z,0.00
2022-08-26T00:45:55.183Z,0.00
2022-08-26T00:50:55.023Z,0.00
2022-08-26T00:55:54.950Z,0.00
2022-08-26T01:00:54.948Z,0.00
2022-08-26T01:05:54.809Z,0.00
2022-08-26T01:10:54.991Z,0.00
2022-08-26T01:15:54.679Z,0.00
2022-08-26T01:20:57.658Z,0.00
2022-08-26T01:25:54.559Z,0.00
2022-08-26T01:30:54.494Z,0.00
2022-08-26T01:35:54.420Z,0.00
2022-08-26T01:40:54.591Z,0.00
2022-08-26T01:45:54.360Z,0.00
2022-08-26T01:50:54.235Z,0.00
2022-08-26T01:55:54.171Z,0.00
2022-08-26T02:00:54.166Z,0.00
2022-08-26T02:05:54.032Z,0.00
2022-08-26T02:10:54.802Z,0.00
2022-08-26T02:15:54.044Z,0.00
2022-08-26T02:20:53.854Z,0.00
2022-08-26T02:25:53.787Z,0.00
2022-08-26T02:30:55.509Z,0.00
2022-08-26T02:35:53.657Z,0.00
2022-08-26T02:40:53.589Z,0.00
2022-08-26T02:45:53.526Z,0.00
2022-08-26T02:50:53.468Z,0.00
2022-08-26T02:55:53.394Z,0.00
2022-08-26T03:00:53.795Z,0.00
2022-08-26T03:05:53.272Z,0.00
2022-08-26T03:10:53.205Z,0.00
2022-08-26T03:15:53.206Z,0.00
2022-08-26T03:20:53.081Z,0.00
2022-08-26T03:25:53.010Z,0.00
2022-08-26T03:30:52.942Z,0.00
2022-08-26T03:35:52.868Z,0.00
2022-08-26T03:40:52.819Z,4.00
2022-08-26T03:45:52.736Z,4.00
2022-08-26T03:50:52.677Z,12.00
2022-08-26T03:55:52.614Z,24.00
2022-08-26T04:00:55.567Z,56.00
2022-08-26T04:05:52.469Z,104.00
2022-08-26T04:10:52.395Z,176.00
2022-08-26T04:15:52.698Z,276.00
2022-08-26T04:20:52.266Z,408.00
2022-08-26T04:25:52.219Z,588.00
2022-08-26T04:30:52.176Z,808.00
2022-08-26T04:35:52.074Z,1056.00
2022-08-26T04:40:51.996Z,1392.00
2022-08-26T04:45:51.951Z,1812.00
2022-08-26T04:50:51.875Z,2280.00
2022-08-26T04:55:52.474Z,2728.00
2022-08-26T05:00:51.743Z,3352.00
2022-08-26T05:05:51.668Z,3436.00
2022-08-26T05:10:51.596Z,3900.00
2022-08-26T05:15:51.639Z,4364.00
2022-08-26T05:20:51.460Z,4684.00
2022-08-26T05:25:54.703Z,4892.00
2022-08-26T05:30:51.379Z,4884.00
2022-08-26T05:35:51.273Z,4864.00
2022-08-26T05:40:52.781Z,5408.00
2022-08-26T05:45:51.141Z,5544.00
2022-08-26T05:50:51.076Z,5568.00
2022-08-26T05:55:51.000Z,5804.00
2022-08-26T06:00:50.941Z,6476.00
2022-08-26T06:05:50.871Z,6992.00
2022-08-26T06:10:50.985Z,7912.00
2022-08-26T06:15:50.795Z,10352.00
2022-08-26T06:20:57.271Z,13460.00
2022-08-26T06:25:50.616Z,16544.00
2022-08-26T06:30:50.579Z,16276.00
2022-08-26T06:35:50.490Z,19904.00
2022-08-26T06:40:50.435Z,40672.00
2022-08-26T06:45:50.360Z,32544.00
2022-08-26T06:50:50.294Z,18656.00
2022-08-26T06:55:51.813Z,20192.00
2022-08-26T07:00:50.172Z,38720.00
2022-08-26T07:05:50.092Z,32928.00
2022-08-26T07:10:50.033Z,45376.00
2022-08-26T07:15:49.998Z,47648.00
2022-08-26T07:20:49.903Z,43392.00
2022-08-26T07:25:49.863Z,43168.00
2022-08-26T07:30:49.813Z,52160.00
2022-08-26T07:35:49.710Z,56512.00
2022-08-26T07:40:49.645Z,57888.00
2022-08-26T07:45:49.614Z,56000.00
2022-08-26T07:50:50.583Z,55648.00
2022-08-26T07:55:49.459Z,57376.00
2022-08-26T08:00:49.390Z,49184.00
2022-08-26T08:05:49.321Z,55712.00
2022-08-26T08:10:49.289Z,43264.00
2022-08-26T08:15:50.296Z,46976.00
2022-08-26T08:20:59.468Z,42784.00
2022-08-26T08:25:50.115Z,44384.00
2022-08-26T08:30:49.094Z,63424.00
2022-08-26T08:35:48.948Z,59936.00
2022-08-26T08:40:48.889Z,61024.00
2022-08-26T08:45:49.661Z,25760.00
2022-08-26T08:50:48.771Z,58560.00
2022-08-26T08:55:48.688Z,32256.00
2022-08-26T09:00:48.650Z,26752.00
2022-08-26T09:05:48.990Z,24416.00
2022-08-26T09:10:48.493Z,20256.00
2022-08-26T09:15:48.424Z,19488.00
2022-08-26T09:20:48.389Z,20576.00
2022-08-26T09:25:48.349Z,21920.00
2022-08-26T09:30:48.306Z,21056.00
2022-08-26T09:35:48.718Z,20928.00
2022-08-26T09:40:48.141Z,20128.00
2022-08-26T09:45:50.275Z,19104.00
2022-08-26T09:50:48.015Z,18336.00
2022-08-26T09:55:47.943Z,17364.00
2022-08-26T10:00:47.910Z,15940.00
2022-08-26T10:05:47.812Z,15116.00
2022-08-26T10:10:47.762Z,14616.00
2022-08-26T10:15:50.669Z,13396.00
2022-08-26T10:20:47.642Z,13652.00
2022-08-26T10:25:47.579Z,14148.00
2022-08-26T10:30:47.514Z,13800.00
2022-08-26T10:35:47.446Z,11824.00
2022-08-26T10:40:49.123Z,12956.00
2022-08-26T10:45:47.350Z,12484.00
2022-08-26T10:50:47.455Z,11204.00
2022-08-26T10:55:47.184Z,10216.00
2022-08-26T11:00:47.195Z,9484.00
2022-08-26T11:05:47.056Z,10492.00
2022-08-26T11:10:47.006Z,10584.00
2022-08-26T11:15:46.918Z,10056.00
2022-08-26T11:20:47.234Z,10096.00
2022-08-26T11:25:46.781Z,9820.00
2022-08-26T11:30:46.731Z,9512.00
2022-08-26T11:35:46.657Z,9604.00
2022-08-26T11:40:46.613Z,9968.00
2022-08-26T11:45:46.567Z,10460.00
2022-08-26T11:50:46.474Z,12188.00
2022-08-26T11:55:47.335Z,12132.00
2022-08-26T12:00:46.325Z,12208.00
2022-08-26T12:05:46.248Z,12456.00
2022-08-26T12:10:46.189Z,10620.00
2022-08-26T12:15:46.116Z,10284.00
2022-08-26T12:20:46.206Z,9616.00
2022-08-26T12:25:46.013Z,12988.00
2022-08-26T12:30:45.952Z,13084.00
2022-08-26T12:35:45.865Z,12400.00
2022-08-26T12:40:45.816Z,11792.00
2022-08-26T12:45:45.804Z,12164.00
2022-08-26T12:50:46.053Z,11444.00
2022-08-26T12:55:45.615Z,12120.00
2022-08-26T13:00:45.801Z,13004.00
2022-08-26T13:05:45.488Z,13120.00
2022-08-26T13:10:45.446Z,12940.00
2022-08-26T13:15:45.368Z,12992.00
2022-08-26T13:20:45.327Z,10852.00
2022-08-26T13:25:45.240Z,10820.00
2022-08-26T13:30:45.199Z,9520.00
2022-08-26T13:35:45.114Z,6336.00
2022-08-26T13:40:45.054Z,5788.00
2022-08-26T13:45:44.991Z,5448.00
2022-08-26T13:50:45.054Z,4548.00
2022-08-26T13:55:44.857Z,4104.00
2022-08-26T14:00:44.890Z,3656.00
2022-08-26T14:05:44.743Z,3292.00
2022-08-26T14:10:44.726Z,3588.00
2022-08-26T14:15:44.857Z,4560.00
2022-08-26T14:20:44.545Z,5828.00
2022-08-26T14:25:44.477Z,7112.00
2022-08-26T14:30:44.428Z,7748.00
2022-08-26T14:35:48.790Z,7968.00
2022-08-26T14:40:44.286Z,7308.00
2022-08-26T14:45:44.257Z,6416.00
2022-08-26T14:50:44.157Z,5368.00
2022-08-26T14:55:44.094Z,4580.00
2022-08-26T15:00:44.030Z,4040.00
2022-08-26T15:05:47.388Z,3644.00
2022-08-26T15:10:43.901Z,3432.00
2022-08-26T15:15:43.846Z,3056.00
2022-08-26T15:20:43.794Z,2852.00
2022-08-26T15:25:43.717Z,2760.00
2022-08-26T15:30:43.651Z,2700.00
2022-08-26T15:35:43.583Z,2568.00
2022-08-26T15:40:43.537Z,2480.00
2022-08-26T15:45:43.445Z,2472.00
2022-08-26T15:50:43.399Z,2112.00
2022-08-26T15:55:43.317Z,2032.00
2022-08-26T16:00:43.259Z,1836.00
2022-08-26T16:05:43.294Z,1892.00
2022-08-26T16:10:46.586Z,2060.00
2022-08-26T16:15:43.107Z,2096.00
2022-08-26T16:20:43.009Z,2080.00
2022-08-26T16:25:44.944Z,1824.00
2022-08-26T16:30:42.870Z,1616.00
2022-08-26T16:35:42.818Z,1416.00
2022-08-26T16:40:42.739Z,1308.00
2022-08-26T16:45:42.678Z,1160.00
2022-08-26T16:50:42.618Z,980.00
2022-08-26T16:55:42.544Z,872.00
2022-08-26T17:00:42.483Z,776.00
2022-08-26T17:05:42.404Z,628.00
2022-08-26T17:15:42.296Z,360.00
2022-08-26T17:20:42.218Z,320.00
2022-08-26T17:25:42.144Z,296.00
2022-08-26T17:30:42.139Z,260.00
2022-08-26T17:35:42.020Z,240.00
2022-08-26T17:40:41.953Z,268.00
2022-08-26T17:45:41.897Z,284.00
2022-08-26T17:50:41.837Z,256.00
2022-08-26T17:55:41.754Z,232.00
2022-08-26T18:00:41.682Z,196.00
2022-08-26T18:05:41.608Z,140.00
2022-08-26T18:10:41.560Z,92.00
2022-08-26T18:15:41.573Z,64.00
2022-08-26T18:20:41.417Z,36.00
2022-08-26T18:25:41.344Z,20.00
2022-08-26T18:30:41.347Z,8.00
2022-08-26T18:35:41.205Z,0.00
2022-08-26T18:40:41.157Z,0.00
2022-08-26T18:45:41.265Z,0.00
2022-08-26T18:50:42.341Z,0.00
2022-08-26T18:55:40.951Z,0.00
2022-08-26T19:00:40.893Z,0.00
2022-08-26T19:05:40.834Z,0.00
2022-08-26T19:10:40.776Z,0.00
2022-08-26T19:15:40.700Z,0.00
2022-08-26T19:20:43.561Z,0.00
2022-08-26T19:25:40.582Z,0.00
2022-08-26T19:30:40.627Z,0.00
2022-08-26T19:35:40.448Z,0.00
2022-08-26T19:40:40.417Z,0.00
2022-08-26T19:45:40.347Z,0.00
2022-08-26T19:50:40.270Z,0.00
2022-08-26T19:55:40.197Z,0.00
2022-08-26T20:00:40.141Z,0.00
2022-08-26T20:05:40.083Z,0.00
2022-08-26T20:10:40.014Z,0.00
2022-08-26T20:15:39.945Z,0.00
2022-08-26T20:20:39.893Z,0.00
2022-08-26T20:25:39.826Z,0.00
2022-08-26T20:30:39.771Z,0.00
2022-08-26T20:35:39.693Z,0.00
2022-08-26T20:40:39.629Z,0.00
2022-08-26T20:45:39.642Z,0.00
2022-08-26T20:50:39.512Z,0.00
2022-08-26T20:55:39.500Z,0.00
2022-08-26T21:00:39.423Z,0.00
2022-08-26T21:05:39.307Z,0.00
2022-08-26T21:10:39.251Z,0.00
2022-08-26T21:15:39.183Z,0.00
2022-08-26T21:20:39.127Z,0.00
2022-08-26T21:25:39.044Z,0.00
2022-08-26T21:30:39.004Z,0.00
2022-08-26T21:35:38.918Z,0.00
2022-08-26T21:40:38.867Z,0.00
2022-08-26T21:45:38.827Z,0.00
2022-08-26T21:50:38.734Z,0.00
2022-08-26T21:55:38.664Z,0.00
2022-08-26T22:00:38.604Z,0.00
2022-08-26T22:05:38.519Z,0.00
2022-08-26T22:10:38.475Z,0.00
2022-08-26T22:15:38.389Z,0.00
2022-08-26T22:20:38.332Z,0.00
2022-08-26T22:25:38.261Z,0.00
2022-08-26T22:30:38.211Z,0.00
2022-08-26T22:35:38.139Z,0.00
2022-08-26T22:40:38.069Z,0.00
2022-08-26T22:45:38.032Z,0.00
2022-08-26T22:50:37.947Z,0.00
2022-08-26T22:55:37.874Z,0.00
2022-08-26T23:00:37.827Z,0.00
2022-08-26T23:05:37.737Z,0.00
2022-08-26T23:10:37.677Z,0.00
2022-08-26T23:15:37.794Z,0.00
2022-08-26T23:20:37.545Z,0.00
2022-08-26T23:25:37.473Z,0.00
2022-08-26T23:30:37.413Z,0.00
2022-08-26T23:35:37.341Z,0.00
2022-08-26T23:40:37.380Z,0.00
2022-08-26T23:45:37.288Z,0.00
2022-08-26T23:50:37.163Z,0.00
2022-08-26T23:55:37.091Z,0.00
